createdAt,value
2019-03-21T00:01:29.723Z,65.43
2019-03-21T00:03:59.567Z,63.13
2019-03-21T00:06:28.159Z,64.97
2019-03-21T00:08:57.012Z,65.77
2019-03-21T00:11:42.707Z,62.93
2019-03-21T00:14:20.224Z,63.37
2019-03-21T00:16:48.778Z,63.20
2019-03-21T00:19:17.437Z,62.07
2019-03-21T00:21:46.056Z,62.00
2019-03-21T00:24:14.667Z,61.10
2019-03-21T00:26:43.285Z,65.17
2019-03-21T00:29:11.872Z,65.43
2019-03-21T00:31:40.490Z,66.63
2019-03-21T00:34:09.242Z,66.60
2019-03-21T00:36:37.915Z,66.23
2019-03-21T00:39:07.607Z,67.67
2019-03-21T00:41:35.993Z,64.97
2019-03-21T00:44:05.699Z,67.43
2019-03-21T00:46:34.393Z,66.60
2019-03-21T00:49:02.840Z,65.53
2019-03-21T00:51:31.414Z,66.10
2019-03-21T00:53:59.940Z,66.70
2019-03-21T00:56:28.616Z,67.27
2019-03-21T00:58:57.107Z,64.50
2019-03-21T01:01:25.651Z,65.03
2019-03-21T01:03:54.374Z,63.23
2019-03-21T01:06:22.886Z,63.90
2019-03-21T01:08:51.362Z,64.97
2019-03-21T01:11:20.005Z,62.77
2019-03-21T01:13:48.568Z,63.17
2019-03-21T01:16:17.061Z,61.67
2019-03-21T01:18:45.544Z,63.07
2019-03-21T01:21:14.053Z,64.30
2019-03-21T01:23:42.662Z,63.30
2019-03-21T01:26:11.239Z,63.97
2019-03-21T01:28:39.904Z,64.63
2019-03-21T01:31:08.441Z,62.43
2019-03-21T01:33:36.806Z,61.50
2019-03-21T01:36:05.299Z,60.30
2019-03-21T01:38:34.042Z,62.37
2019-03-21T01:41:02.653Z,61.90
2019-03-21T01:43:31.355Z,61.40
2019-03-21T01:46:00.039Z,58.47
2019-03-21T01:48:28.714Z,60.77
2019-03-21T01:50:57.150Z,60.23
2019-03-21T01:53:25.706Z,61.73
2019-03-21T01:55:54.259Z,60.37
2019-03-21T01:58:22.741Z,60.67
2019-03-21T02:00:51.359Z,60.23
2019-03-21T02:03:19.802Z,61.77
2019-03-21T02:05:48.300Z,59.60
2019-03-21T02:08:16.875Z,57.30
2019-03-21T02:10:45.447Z,59.17
2019-03-21T02:13:13.980Z,58.53
2019-03-21T02:15:42.581Z,59.07
2019-03-21T02:18:11.758Z,56.90
2019-03-21T02:20:40.405Z,57.63
2019-03-21T02:23:09.046Z,54.43
2019-03-21T02:25:37.640Z,55.93
2019-03-21T02:28:06.233Z,54.47
2019-03-21T02:30:35.254Z,53.07
2019-03-21T02:33:05.474Z,53.20
2019-03-21T02:35:34.341Z,53.57
2019-03-21T02:38:03.329Z,52.87
2019-03-21T02:40:31.940Z,53.80
2019-03-21T02:43:00.374Z,50.93
2019-03-21T02:45:28.800Z,51.87
2019-03-21T02:47:57.449Z,50.77
2019-03-21T02:50:27.215Z,49.33
2019-03-21T02:52:55.620Z,49.20
2019-03-21T02:55:24.468Z,49.43
2019-03-21T02:57:53.100Z,48.07
2019-03-21T03:00:22.563Z,49.67
2019-03-21T03:02:51.889Z,49.70
2019-03-21T03:05:21.556Z,48.23
2019-03-21T03:07:49.889Z,49.30
2019-03-21T03:10:19.870Z,47.47
2019-03-21T03:12:48.287Z,48.17
2019-03-21T03:15:22.993Z,47.80
2019-03-21T03:17:47.574Z,49.03
2019-03-21T03:20:16.129Z,51.60
2019-03-21T03:22:44.688Z,51.77
2019-03-21T03:25:14.251Z,48.77
2019-03-21T03:27:43.003Z,49.93
2019-03-21T03:30:13.160Z,49.67
2019-03-21T03:32:41.645Z,48.23
2019-03-21T03:35:10.728Z,50.30
2019-03-21T03:37:39.329Z,45.73
2019-03-21T03:40:09.100Z,47.60
2019-03-21T03:42:37.626Z,47.60
2019-03-21T03:45:07.256Z,48.17
2019-03-21T03:47:35.781Z,47.43
2019-03-21T03:50:05.233Z,47.33
2019-03-21T03:52:33.781Z,49.20
2019-03-21T03:55:02.326Z,47.67
2019-03-21T03:57:30.987Z,47.37
2019-03-21T03:59:59.607Z,49.60
2019-03-21T04:02:28.247Z,48.73
2019-03-21T04:04:56.699Z,51.40
2019-03-21T04:07:25.194Z,49.07
2019-03-21T04:09:53.736Z,48.43
2019-03-21T04:12:22.295Z,47.40
2019-03-21T04:14:50.959Z,49.53
2019-03-21T04:17:19.523Z,47.43
2019-03-21T04:19:47.953Z,46.40
2019-03-21T04:22:16.302Z,47.00
2019-03-21T04:24:44.881Z,46.57
2019-03-21T04:27:13.502Z,44.87
2019-03-21T04:29:42.052Z,43.30
2019-03-21T04:32:10.623Z,47.20
2019-03-21T04:34:39.652Z,45.07
2019-03-21T04:37:08.445Z,44.50
2019-03-21T04:39:37.076Z,44.83
2019-03-21T04:42:05.746Z,42.80
2019-03-21T04:44:34.400Z,42.77
2019-03-21T04:47:03.082Z,41.10
2019-03-21T04:49:31.742Z,40.60
2019-03-21T04:52:00.539Z,38.23
2019-03-21T04:54:28.873Z,39.97
2019-03-21T04:56:57.221Z,38.77
2019-03-21T04:59:25.544Z,36.33
2019-03-21T05:01:53.903Z,36.53
2019-03-21T05:04:22.196Z,37.33
2019-03-21T05:07:17.401Z,35.00
2019-03-21T05:09:45.955Z,34.50
2019-03-21T05:12:17.198Z,34.97
2019-03-21T05:14:45.821Z,35.67
2019-03-21T05:17:14.435Z,35.87
2019-03-21T05:19:42.907Z,37.13
2019-03-21T05:22:11.402Z,36.20
2019-03-21T05:24:40.536Z,36.27
2019-03-21T05:27:11.608Z,33.17
2019-03-21T05:29:40.110Z,33.97
2019-03-21T05:32:08.614Z,36.80
2019-03-21T05:34:37.389Z,37.37
2019-03-21T05:37:06.071Z,36.13
2019-03-21T05:39:34.516Z,37.57
2019-03-21T05:42:05.746Z,40.63
2019-03-21T05:44:37.157Z,38.87
2019-03-21T05:47:05.625Z,39.87
2019-03-21T05:49:33.979Z,39.53
2019-03-21T05:52:02.597Z,41.63
2019-03-21T05:54:30.971Z,38.57
2019-03-21T05:56:59.464Z,39.03
2019-03-21T05:59:28.644Z,37.60
2019-03-21T06:01:58.987Z,37.67
2019-03-21T06:04:28.529Z,38.97
2019-03-21T06:07:08.782Z,39.87
2019-03-21T06:09:37.373Z,39.63
2019-03-21T06:12:07.992Z,39.27
2019-03-21T06:14:36.890Z,38.63
2019-03-21T06:17:08.644Z,37.87
2019-03-21T06:20:14.235Z,38.87
2019-03-21T06:23:03.772Z,38.17
2019-03-21T06:26:03.115Z,36.43
2019-03-21T06:29:03.081Z,35.90
2019-03-21T06:34:22.660Z,38.07
2019-03-21T06:36:51.409Z,40.17
2019-03-21T06:39:19.696Z,40.93
2019-03-21T06:41:48.629Z,41.67
2019-03-21T06:44:23.187Z,41.63
2019-03-21T06:47:05.251Z,40.57
2019-03-21T06:49:33.716Z,40.80
2019-03-21T06:52:05.387Z,44.33
2019-03-21T06:54:33.977Z,41.97
2019-03-21T06:57:11.725Z,38.93
2019-03-21T06:59:43.236Z,38.30
2019-03-21T07:02:11.635Z,36.70
2019-03-21T07:04:40.185Z,33.33
2019-03-21T07:07:08.926Z,35.10
2019-03-21T07:09:37.514Z,35.33
2019-03-21T07:12:06.116Z,34.33
2019-03-21T07:14:34.583Z,36.97
2019-03-21T07:17:02.987Z,37.43
2019-03-21T07:20:31.786Z,35.43
2019-03-21T07:34:04.554Z,38.13
2019-03-21T07:36:47.466Z,36.73
2019-03-21T07:42:44.226Z,36.93
2019-03-21T07:45:12.891Z,35.40
2019-03-21T07:50:53.602Z,35.53
2019-03-21T07:53:22.191Z,36.23
2019-03-21T07:55:50.895Z,35.40
2019-03-21T07:58:19.265Z,36.07
2019-03-21T08:00:47.594Z,36.20
2019-03-21T08:06:42.269Z,35.50
2019-03-21T08:09:10.628Z,39.87
2019-03-21T08:11:39.241Z,39.67
2019-03-21T08:14:08.999Z,41.33
2019-03-21T08:20:06.177Z,39.13
2019-03-21T08:22:34.553Z,38.13
2019-03-21T08:25:02.872Z,39.43
2019-03-21T08:27:31.257Z,38.37
2019-03-21T08:29:59.619Z,39.13
2019-03-21T08:32:28.931Z,35.97
2019-03-21T08:35:00.030Z,34.57
2019-03-21T08:37:28.490Z,34.00
2019-03-21T08:39:56.938Z,34.43
2019-03-21T08:42:25.372Z,33.53
2019-03-21T08:44:53.725Z,32.10
2019-03-21T08:47:23.786Z,30.03
2019-03-21T08:49:52.083Z,32.00
2019-03-21T08:52:20.740Z,28.23
2019-03-21T08:54:49.066Z,28.90
2019-03-21T08:57:17.532Z,28.67
2019-03-21T08:59:47.999Z,24.93
2019-03-21T09:02:15.995Z,24.47
2019-03-21T09:04:44.309Z,23.17
2019-03-21T09:07:12.691Z,24.77
2019-03-21T09:09:41.034Z,24.27
2019-03-21T09:12:09.485Z,23.43
2019-03-21T09:14:38.958Z,22.97
2019-03-21T09:17:07.405Z,21.67
2019-03-21T09:19:35.775Z,22.20
2019-03-21T09:22:04.184Z,22.17
2019-03-21T09:24:32.528Z,21.87
2019-03-21T09:27:00.914Z,21.13
2019-03-21T09:29:29.395Z,21.73
2019-03-21T09:31:57.734Z,21.67
2019-03-21T09:34:26.147Z,22.43
2019-03-21T09:36:54.484Z,21.00
2019-03-21T09:39:22.906Z,20.47
2019-03-21T09:41:51.207Z,20.37
2019-03-21T09:44:26.134Z,21.43
2019-03-21T09:46:54.500Z,20.23
2019-03-21T09:49:25.418Z,21.77
2019-03-21T09:51:54.228Z,21.23
2019-03-21T09:54:22.539Z,20.33
2019-03-21T09:56:50.910Z,20.73
2019-03-21T09:59:19.264Z,21.60
2019-03-21T10:01:47.627Z,20.73
2019-03-21T10:04:15.975Z,21.57
2019-03-21T10:06:44.467Z,22.93
2019-03-21T10:09:12.822Z,22.20
2019-03-21T10:11:43.164Z,21.57
2019-03-21T10:14:11.501Z,21.07
2019-03-21T10:16:39.863Z,21.60
2019-03-21T10:19:08.188Z,22.43
2019-03-21T10:21:43.171Z,22.17
2019-03-21T10:24:06.529Z,22.23
2019-03-21T10:26:34.876Z,22.67
2019-03-21T10:29:03.207Z,23.23
2019-03-21T10:31:31.538Z,24.17
2019-03-21T10:33:59.909Z,22.97
2019-03-21T10:36:28.253Z,22.40
2019-03-21T10:38:59.616Z,22.87
2019-03-21T10:41:28.034Z,22.90
2019-03-21T10:43:56.463Z,22.37
2019-03-21T10:46:24.822Z,23.00
2019-03-21T10:48:53.215Z,23.60
2019-03-21T10:51:21.664Z,23.73
2019-03-21T10:53:50.011Z,22.83
2019-03-21T10:56:18.397Z,23.83
2019-03-21T10:58:46.741Z,24.47
2019-03-21T11:01:15.100Z,24.17
2019-03-21T11:03:43.566Z,24.73
2019-03-21T11:06:12.004Z,24.90
2019-03-21T11:08:40.346Z,24.33
2019-03-21T11:11:08.675Z,26.23
2019-03-21T11:13:36.991Z,25.20
2019-03-21T11:16:05.316Z,25.13
2019-03-21T11:18:36.235Z,25.93
2019-03-21T11:21:03.654Z,25.07
2019-03-21T11:23:32.585Z,23.43
2019-03-21T11:26:00.935Z,26.97
2019-03-21T11:28:29.277Z,26.13
2019-03-21T11:30:57.634Z,24.87
2019-03-21T11:33:26.000Z,25.23
2019-03-21T11:35:54.308Z,25.43
2019-03-21T11:38:22.651Z,24.63
2019-03-21T11:40:50.984Z,24.73
2019-03-21T11:43:20.288Z,24.70
2019-03-21T11:45:48.655Z,24.50
2019-03-21T11:48:17.064Z,24.97
2019-03-21T11:50:45.541Z,26.07
2019-03-21T11:53:13.928Z,26.30
2019-03-21T11:55:42.287Z,26.00
2019-03-21T11:58:10.665Z,24.37
2019-03-21T12:00:43.775Z,22.73
2019-03-21T12:03:10.890Z,23.53
2019-03-21T12:05:39.230Z,23.50
2019-03-21T12:08:07.634Z,24.43
2019-03-21T12:10:36.009Z,22.47
2019-03-21T12:13:04.334Z,23.33
2019-03-21T12:15:32.706Z,24.63
2019-03-21T12:18:01.058Z,21.40
2019-03-21T12:20:30.377Z,22.03
2019-03-21T12:22:58.754Z,21.63
2019-03-21T12:25:27.178Z,22.13
2019-03-21T12:27:56.950Z,21.33
2019-03-21T12:30:38.646Z,21.27
2019-03-21T12:33:07.261Z,20.23
2019-03-21T12:35:35.743Z,20.47
2019-03-21T12:38:04.503Z,18.37
2019-03-21T12:40:32.866Z,18.77
2019-03-21T12:43:01.179Z,17.77
2019-03-21T12:45:29.549Z,17.57
2019-03-21T12:47:57.891Z,17.80
2019-03-21T12:50:26.266Z,17.77
2019-03-21T12:52:54.570Z,16.63
2019-03-21T12:55:22.873Z,16.17
2019-03-21T12:57:51.230Z,16.40
2019-03-21T13:00:29.789Z,17.00
2019-03-21T13:02:59.146Z,17.33
2019-03-21T13:05:29.709Z,18.33
2019-03-21T13:07:58.048Z,18.90
2019-03-21T13:10:26.351Z,16.43
2019-03-21T13:12:54.716Z,17.13
2019-03-21T13:15:29.959Z,18.27
2019-03-21T13:17:55.361Z,19.43
2019-03-21T13:20:23.659Z,19.20
2019-03-21T13:22:53.298Z,19.07
2019-03-21T13:25:22.011Z,20.47
2019-03-21T13:27:50.369Z,18.93
2019-03-21T13:30:18.699Z,19.53
2019-03-21T13:32:47.291Z,20.20
2019-03-21T13:35:15.775Z,19.80
2019-03-21T13:37:45.932Z,19.23
2019-03-21T13:40:14.280Z,19.27
2019-03-21T13:42:42.629Z,19.03
2019-03-21T13:45:11.023Z,19.33
2019-03-21T13:47:39.394Z,19.37
2019-03-21T13:50:07.887Z,19.27
2019-03-21T13:52:36.359Z,18.70
2019-03-21T13:55:07.303Z,18.13
2019-03-21T13:57:35.619Z,19.03
2019-03-21T14:00:05.907Z,18.50
2019-03-21T14:02:34.281Z,19.30
2019-03-21T14:05:04.049Z,19.97
2019-03-21T14:07:32.402Z,19.80
2019-03-21T14:10:00.719Z,19.10
2019-03-21T14:12:30.087Z,20.03
2019-03-21T14:14:58.381Z,21.07
2019-03-21T14:17:26.704Z,20.20
2019-03-21T14:19:55.149Z,21.33
2019-03-21T14:22:23.542Z,20.80
2019-03-21T14:24:53.183Z,20.90
2019-03-21T14:27:21.515Z,20.13
2019-03-21T14:30:00.774Z,19.63
2019-03-21T14:32:20.153Z,19.30
2019-03-21T14:34:48.465Z,18.57
2019-03-21T14:37:16.973Z,19.60
2019-03-21T14:39:45.365Z,19.57
2019-03-21T14:42:13.720Z,19.57
2019-03-21T14:44:42.052Z,20.67
2019-03-21T14:47:10.459Z,20.53
2019-03-21T14:49:38.810Z,21.87
2019-03-21T14:52:07.183Z,20.80
2019-03-21T14:54:35.843Z,19.40
2019-03-21T14:57:04.295Z,20.30
2019-03-21T14:59:32.694Z,19.70
2019-03-21T15:02:01.059Z,18.80
2019-03-21T15:04:29.420Z,18.97
2019-03-21T15:06:57.733Z,17.77
2019-03-21T15:09:26.086Z,18.37
2019-03-21T15:11:54.429Z,18.37
2019-03-21T15:14:22.845Z,17.40
2019-03-21T15:16:51.133Z,18.97
2019-03-21T15:19:19.492Z,18.00
2019-03-21T15:21:47.819Z,17.87
2019-03-21T15:24:16.313Z,18.00
2019-03-21T15:26:44.753Z,19.23
2019-03-21T15:29:13.851Z,18.57
2019-03-21T15:31:42.141Z,19.20
2019-03-21T15:34:10.538Z,22.90
2019-03-21T15:36:38.866Z,20.83
2019-03-21T15:39:08.066Z,19.40
2019-03-21T15:41:36.804Z,18.93
2019-03-21T15:44:05.170Z,19.27
2019-03-21T15:46:33.511Z,20.77
2019-03-21T15:49:01.870Z,18.50
2019-03-21T15:51:30.691Z,20.80
2019-03-21T15:53:59.045Z,20.00
2019-03-21T15:56:27.804Z,18.63
2019-03-21T15:58:56.183Z,20.90
2019-03-21T16:01:24.570Z,19.87
2019-03-21T16:03:52.999Z,19.07
2019-03-21T16:06:21.404Z,18.90
2019-03-21T16:08:49.733Z,19.57
2019-03-21T16:11:18.098Z,19.30
2019-03-21T16:13:46.493Z,18.73
2019-03-21T16:16:18.050Z,18.03
2019-03-21T16:18:46.438Z,19.10
2019-03-21T16:24:36.755Z,18.00
2019-03-21T16:27:05.141Z,20.33
2019-03-21T16:29:34.642Z,23.37
2019-03-21T16:32:03.690Z,20.57
2019-03-21T16:34:32.617Z,18.70
2019-03-21T16:37:03.604Z,18.30
2019-03-21T16:42:42.045Z,17.83
2019-03-21T16:45:11.218Z,17.60
2019-03-21T16:47:39.650Z,18.77
2019-03-21T16:50:08.010Z,18.70
2019-03-21T16:52:36.359Z,19.43
2019-03-21T16:55:05.181Z,17.87
2019-03-21T16:57:33.499Z,19.93
2019-03-21T17:00:01.845Z,19.07
2019-03-21T17:02:30.258Z,19.97
2019-03-21T17:05:07.938Z,17.80
2019-03-21T17:07:36.361Z,18.93
2019-03-21T17:10:08.897Z,19.40
2019-03-21T17:12:37.338Z,18.47
2019-03-21T17:15:11.022Z,21.30
2019-03-21T17:17:40.025Z,19.37
2019-03-21T17:20:08.463Z,20.50
2019-03-21T17:22:36.793Z,20.73
2019-03-21T17:25:05.358Z,24.07
2019-03-21T17:27:33.843Z,20.40
2019-03-21T17:30:02.197Z,18.43
2019-03-21T17:32:30.575Z,19.97
2019-03-21T17:34:58.931Z,19.60
2019-03-21T17:37:27.357Z,18.60
2019-03-21T17:39:55.907Z,20.77
2019-03-21T17:42:24.291Z,21.40
2019-03-21T17:44:53.069Z,19.37
2019-03-21T17:47:22.987Z,21.37
2019-03-21T17:49:51.300Z,20.00
2019-03-21T17:52:19.673Z,23.33
2019-03-21T17:54:48.059Z,22.03
2019-03-21T17:57:16.559Z,23.17
2019-03-21T17:59:44.970Z,23.00
2019-03-21T18:02:16.371Z,22.47
2019-03-21T18:04:44.718Z,21.73
2019-03-21T18:07:13.069Z,23.23
2019-03-21T18:09:41.399Z,25.30
2019-03-21T18:12:09.839Z,27.03
2019-03-21T18:14:38.230Z,29.33
2019-03-21T18:17:06.658Z,26.17
2019-03-21T18:19:35.135Z,26.63
2019-03-21T18:22:03.536Z,23.83
2019-03-21T18:24:31.999Z,23.40
2019-03-21T18:27:00.376Z,23.57
2019-03-21T18:29:28.967Z,22.77
2019-03-21T18:32:04.957Z,22.47
2019-03-21T18:34:33.455Z,21.47
2019-03-21T18:37:03.180Z,21.37
2019-03-21T18:39:31.792Z,24.17
2019-03-21T18:42:00.193Z,24.27
2019-03-21T18:44:28.557Z,22.80
2019-03-21T18:46:56.976Z,23.17
2019-03-21T18:49:25.828Z,24.60
2019-03-21T18:51:54.231Z,23.53
2019-03-21T18:54:22.617Z,24.40
2019-03-21T18:56:52.202Z,26.60
2019-03-21T18:59:20.607Z,27.40
2019-03-21T19:01:58.381Z,28.20
2019-03-21T19:04:21.730Z,30.93
2019-03-21T19:06:50.279Z,29.60
2019-03-21T19:09:18.823Z,28.10
2019-03-21T19:12:02.673Z,29.63
2019-03-21T19:14:31.789Z,27.70
2019-03-21T19:17:06.017Z,28.47
2019-03-21T19:19:37.218Z,28.93
2019-03-21T19:22:05.763Z,27.57
2019-03-21T19:24:34.855Z,28.50
2019-03-21T19:27:03.572Z,29.40
2019-03-21T19:29:32.463Z,26.80
2019-03-21T19:32:01.118Z,27.20
2019-03-21T19:34:30.167Z,27.17
2019-03-21T19:36:58.982Z,27.40
2019-03-21T19:39:27.416Z,27.20
2019-03-21T19:41:55.749Z,26.67
2019-03-21T19:44:24.111Z,24.53
2019-03-21T19:46:53.013Z,24.53
2019-03-21T19:49:21.785Z,25.23
2019-03-21T19:51:50.391Z,26.30
2019-03-21T19:54:19.368Z,25.33
2019-03-21T19:56:48.089Z,26.10
2019-03-21T19:59:17.496Z,27.20
2019-03-21T20:01:45.951Z,28.60
2019-03-21T20:04:26.477Z,27.90
2019-03-21T20:06:54.957Z,25.17
2019-03-21T20:09:23.336Z,25.67
2019-03-21T20:11:53.103Z,26.27
2019-03-21T20:14:21.569Z,27.27
2019-03-21T20:16:50.004Z,26.30
2019-03-21T20:19:18.397Z,26.67
2019-03-21T20:21:48.190Z,26.33
2019-03-21T20:27:26.552Z,29.33
2019-03-21T20:29:54.905Z,28.90
2019-03-21T20:32:23.262Z,28.43
2019-03-21T20:34:52.453Z,29.67
2019-03-21T20:37:20.793Z,29.50
2019-03-21T20:39:49.216Z,29.40
2019-03-21T20:42:17.540Z,29.60
2019-03-21T20:44:45.956Z,30.50
2019-03-21T20:47:14.412Z,29.57
2019-03-21T20:49:43.279Z,29.33
2019-03-21T20:52:11.678Z,28.23
2019-03-21T20:54:40.385Z,26.73
2019-03-21T20:57:08.937Z,27.23
2019-03-21T20:59:37.946Z,27.67
2019-03-21T21:02:06.580Z,27.57
2019-03-21T21:04:35.211Z,27.40
2019-03-21T21:07:03.914Z,28.93
2019-03-21T21:09:32.550Z,27.07
2019-03-21T21:12:01.189Z,28.80
2019-03-21T21:14:30.037Z,30.60
2019-03-21T21:16:58.392Z,30.90
2019-03-21T21:19:27.015Z,29.53
2019-03-21T21:21:55.579Z,31.00
2019-03-21T21:24:23.950Z,31.93
2019-03-21T21:26:52.420Z,32.83
2019-03-21T21:29:20.840Z,33.43
2019-03-21T21:31:49.351Z,34.10
2019-03-21T21:34:18.008Z,33.13
2019-03-21T21:36:46.540Z,33.23
2019-03-21T21:39:15.072Z,33.17
2019-03-21T21:41:43.750Z,33.47
2019-03-21T21:44:12.660Z,34.93
2019-03-21T21:46:41.084Z,33.33
2019-03-21T21:49:09.454Z,32.23
2019-03-21T21:51:37.888Z,34.47
2019-03-21T21:54:06.566Z,33.90
2019-03-21T21:56:34.948Z,33.73
2019-03-21T21:59:03.339Z,34.60
2019-03-21T22:01:31.738Z,32.77
2019-03-21T22:04:04.884Z,33.70
2019-03-21T22:06:30.541Z,33.17
2019-03-21T22:08:59.091Z,33.63
2019-03-21T22:11:27.460Z,33.60
2019-03-21T22:13:56.025Z,34.13
2019-03-21T22:16:24.431Z,33.27
2019-03-21T22:18:52.830Z,33.63
2019-03-21T22:21:21.283Z,33.60
2019-03-21T22:23:49.686Z,34.60
2019-03-21T22:26:34.275Z,32.60
2019-03-21T22:29:02.599Z,32.93
2019-03-21T22:31:30.949Z,30.77
2019-03-21T22:33:59.366Z,28.87
2019-03-21T22:36:27.716Z,26.20
2019-03-21T22:38:56.119Z,24.13
2019-03-21T22:41:24.486Z,24.20
2019-03-21T22:43:52.885Z,26.30
2019-03-21T22:46:21.288Z,27.50
2019-03-21T22:48:49.616Z,27.97
2019-03-21T22:51:18.036Z,26.23
2019-03-21T22:53:46.780Z,27.53
2019-03-21T22:56:15.088Z,26.40
2019-03-21T22:58:43.481Z,25.90
2019-03-21T23:01:11.946Z,22.53
2019-03-21T23:03:40.262Z,21.80
2019-03-21T23:06:08.572Z,18.33
2019-03-21T23:08:36.951Z,18.57
2019-03-21T23:11:06.100Z,19.07
2019-03-21T23:13:34.356Z,18.13
2019-03-21T23:16:02.693Z,19.97
2019-03-21T23:21:52.910Z,23.40
2019-03-21T23:25:08.912Z,24.27
2019-03-21T23:27:37.240Z,25.17
2019-03-21T23:30:06.745Z,26.10
2019-03-21T23:32:35.072Z,26.37
2019-03-21T23:35:03.436Z,28.57
2019-03-21T23:37:31.764Z,27.50
2019-03-21T23:40:00.132Z,29.17
2019-03-21T23:42:28.458Z,30.60
2019-03-21T23:44:56.767Z,30.60
2019-03-21T23:47:25.115Z,31.80
2019-03-21T23:49:53.431Z,31.73
2019-03-21T23:52:21.790Z,34.07
2019-03-21T23:54:50.137Z,32.63
2019-03-21T23:57:18.490Z,34.60
2019-03-21T23:59:46.825Z,33.47
